createdAt,value
2019-03-25T00:01:56.589Z,99.90
2019-03-25T00:04:24.433Z,99.90
2019-03-25T00:06:52.215Z,99.90
2019-03-25T00:09:20.027Z,99.90
2019-03-25T00:11:47.815Z,99.90
2019-03-25T00:14:15.627Z,99.90
2019-03-25T00:16:43.415Z,99.90
2019-03-25T00:19:11.248Z,99.90
2019-03-25T00:21:39.075Z,99.90
2019-03-25T00:24:14.825Z,99.90
2019-03-25T00:26:42.681Z,99.90
2019-03-25T00:29:10.480Z,99.90
2019-03-25T00:31:38.317Z,99.90
2019-03-25T00:34:06.194Z,99.90
2019-03-25T00:36:33.977Z,99.90
2019-03-25T00:39:01.803Z,99.90
2019-03-25T00:41:29.763Z,99.90
2019-03-25T00:43:57.600Z,99.90
2019-03-25T00:46:25.483Z,99.90
2019-03-25T00:48:53.402Z,99.90
2019-03-25T00:51:21.199Z,99.90
2019-03-25T00:53:48.991Z,99.90
2019-03-25T00:56:16.816Z,99.90
2019-03-25T00:58:44.584Z,99.90
2019-03-25T01:01:12.663Z,99.90
2019-03-25T01:03:40.561Z,99.90
2019-03-25T01:06:08.405Z,99.90
2019-03-25T01:08:36.315Z,99.90
2019-03-25T01:11:04.181Z,99.90
2019-03-25T01:13:31.971Z,99.90
2019-03-25T01:15:59.924Z,99.90
2019-03-25T01:18:28.245Z,99.90
2019-03-25T01:20:56.128Z,99.90
2019-03-25T01:23:23.923Z,99.90
2019-03-25T01:25:51.764Z,99.90
2019-03-25T01:28:19.595Z,99.90
2019-03-25T01:30:47.513Z,99.90
2019-03-25T01:33:15.312Z,99.90
2019-03-25T01:35:43.221Z,99.90
2019-03-25T01:38:11.032Z,99.90
2019-03-25T01:40:38.812Z,99.90
2019-03-25T01:43:06.636Z,99.90
2019-03-25T01:45:34.523Z,99.90
2019-03-25T01:48:02.361Z,99.90
2019-03-25T01:50:30.140Z,99.90
2019-03-25T01:52:57.926Z,99.90
2019-03-25T01:55:25.735Z,99.90
2019-03-25T01:57:53.531Z,99.90
2019-03-25T02:00:21.359Z,99.90
2019-03-25T02:02:49.163Z,99.90
2019-03-25T02:05:16.986Z,99.90
2019-03-25T02:07:44.808Z,99.90
2019-03-25T02:10:12.922Z,99.90
2019-03-25T02:12:40.784Z,99.90
2019-03-25T02:15:08.918Z,99.90
2019-03-25T02:17:36.831Z,99.90
2019-03-25T02:20:05.129Z,99.90
2019-03-25T02:22:32.979Z,99.90
2019-03-25T02:25:00.875Z,99.90
2019-03-25T02:27:28.689Z,99.90
2019-03-25T02:29:56.529Z,99.90
2019-03-25T02:32:24.295Z,99.90
2019-03-25T02:34:52.084Z,99.90
2019-03-25T02:37:19.873Z,99.90
2019-03-25T02:39:47.668Z,99.90
2019-03-25T02:42:15.493Z,99.90
2019-03-25T02:44:43.524Z,99.90
2019-03-25T02:47:11.458Z,99.90
2019-03-25T02:49:39.332Z,99.90
2019-03-25T02:52:07.138Z,99.90
2019-03-25T02:54:34.926Z,99.90
2019-03-25T02:57:03.070Z,99.90
2019-03-25T02:59:31.362Z,99.90
2019-03-25T03:01:59.548Z,99.90
2019-03-25T03:04:27.772Z,99.90
2019-03-25T03:06:56.095Z,99.90
2019-03-25T03:09:24.316Z,99.90
2019-03-25T03:11:55.046Z,99.90
2019-03-25T03:14:23.314Z,99.90
2019-03-25T03:16:51.618Z,99.90
2019-03-25T03:19:22.969Z,99.90
2019-03-25T03:21:51.229Z,99.90
2019-03-25T03:24:19.977Z,99.90
2019-03-25T03:26:47.840Z,99.90
2019-03-25T03:29:15.696Z,99.90
2019-03-25T03:31:43.630Z,99.90
2019-03-25T03:34:11.513Z,99.90
2019-03-25T03:36:39.327Z,99.90
2019-03-25T03:39:07.203Z,99.90
2019-03-25T03:41:35.059Z,99.90
2019-03-25T03:44:02.887Z,99.90
2019-03-25T03:46:30.869Z,99.90
2019-03-25T03:48:58.749Z,99.90
2019-03-25T03:51:26.555Z,99.90
2019-03-25T03:53:54.354Z,99.90
2019-03-25T03:56:23.261Z,99.90
2019-03-25T03:58:51.240Z,99.90
2019-03-25T04:01:19.116Z,99.90
2019-03-25T04:03:46.932Z,99.90
2019-03-25T04:06:14.829Z,99.90
2019-03-25T04:08:42.777Z,99.90
2019-03-25T04:11:10.594Z,99.90
2019-03-25T04:13:38.491Z,99.90
2019-03-25T04:16:06.292Z,99.90
2019-03-25T04:18:34.235Z,99.90
2019-03-25T04:21:02.135Z,99.90
2019-03-25T04:23:30.010Z,99.90
2019-03-25T04:25:57.836Z,99.90
2019-03-25T04:28:25.662Z,99.90
2019-03-25T04:30:53.461Z,99.90
2019-03-25T04:33:21.259Z,99.90
2019-03-25T04:35:49.045Z,99.90
2019-03-25T04:38:16.848Z,99.90
2019-03-25T04:40:44.644Z,99.90
2019-03-25T04:43:12.584Z,99.90
2019-03-25T04:45:40.479Z,99.90
2019-03-25T04:48:08.266Z,99.90
2019-03-25T04:50:36.123Z,99.90
2019-03-25T04:53:03.929Z,99.90
2019-03-25T04:55:31.722Z,99.90
2019-03-25T04:57:59.532Z,99.90
2019-03-25T05:00:33.714Z,99.90
2019-03-25T05:03:01.543Z,99.90
2019-03-25T05:05:29.334Z,99.90
2019-03-25T05:07:57.149Z,99.90
2019-03-25T05:10:25.048Z,99.90
2019-03-25T05:12:52.851Z,99.90
2019-03-25T05:15:20.731Z,99.90
2019-03-25T05:17:48.548Z,99.90
2019-03-25T05:20:16.324Z,99.90
2019-03-25T05:22:44.124Z,99.90
2019-03-25T05:25:12.140Z,99.90
2019-03-25T05:27:40.037Z,99.90
2019-03-25T05:30:07.851Z,99.90
2019-03-25T05:32:35.667Z,99.90
2019-03-25T05:35:03.657Z,99.90
2019-03-25T05:37:31.467Z,99.90
2019-03-25T05:39:59.291Z,99.90
2019-03-25T05:42:27.206Z,99.90
2019-03-25T05:44:55.028Z,99.90
2019-03-25T05:47:22.847Z,99.90
2019-03-25T05:49:50.620Z,99.90
2019-03-25T05:52:19.555Z,99.90
2019-03-25T05:54:47.419Z,99.90
2019-03-25T05:57:15.216Z,99.90
2019-03-25T05:59:44.016Z,99.90
2019-03-25T06:02:11.826Z,99.90
2019-03-25T06:04:39.639Z,99.90
2019-03-25T06:07:07.440Z,99.90
2019-03-25T06:09:35.416Z,99.90
2019-03-25T06:12:03.204Z,99.90
2019-03-25T06:14:31.133Z,99.90
2019-03-25T06:16:59.148Z,99.90
2019-03-25T06:19:26.991Z,99.90
2019-03-25T06:21:54.871Z,99.90
2019-03-25T06:24:22.818Z,99.90
2019-03-25T06:26:50.663Z,99.90
2019-03-25T06:29:18.560Z,99.90
2019-03-25T06:31:46.942Z,99.90
2019-03-25T06:34:14.833Z,99.90
2019-03-25T06:36:42.665Z,99.90
2019-03-25T06:39:11.559Z,99.90
2019-03-25T06:41:39.543Z,99.90
2019-03-25T06:44:08.059Z,99.90
2019-03-25T06:46:35.891Z,99.90
2019-03-25T06:49:03.737Z,99.90
2019-03-25T06:51:31.632Z,99.90
2019-03-25T06:53:59.470Z,99.90
2019-03-25T06:56:27.369Z,99.90
2019-03-25T06:58:55.285Z,99.90
2019-03-25T07:01:23.115Z,99.90
2019-03-25T07:03:50.952Z,99.90
2019-03-25T07:06:18.786Z,99.90
2019-03-25T07:08:46.624Z,99.90
2019-03-25T07:11:14.430Z,99.90
2019-03-25T07:13:42.463Z,99.90
2019-03-25T07:16:10.276Z,99.90
2019-03-25T07:18:38.114Z,99.90
2019-03-25T07:21:15.440Z,99.90
2019-03-25T07:23:43.450Z,99.90
2019-03-25T07:26:11.275Z,99.90
2019-03-25T07:28:39.108Z,99.90
2019-03-25T07:31:07.008Z,99.90
2019-03-25T07:33:35.015Z,99.90
2019-03-25T07:36:02.977Z,99.90
2019-03-25T07:38:30.898Z,99.90
2019-03-25T07:40:58.812Z,99.90
2019-03-25T07:43:26.616Z,99.90
2019-03-25T07:45:54.483Z,99.90
2019-03-25T07:48:22.351Z,99.90
2019-03-25T07:50:50.275Z,99.90
2019-03-25T07:53:18.183Z,99.90
2019-03-25T07:56:36.469Z,99.90
2019-03-25T07:59:51.827Z,99.90
2019-03-25T08:03:02.798Z,99.90
2019-03-25T08:12:03.932Z,99.90
2019-03-25T08:14:31.988Z,99.90
2019-03-25T08:16:59.852Z,99.90
2019-03-25T08:19:27.774Z,99.90
2019-03-25T08:21:55.659Z,99.90
2019-03-25T08:24:23.510Z,99.90
2019-03-25T08:26:51.462Z,99.90
2019-03-25T08:29:19.292Z,99.90
2019-03-25T08:31:47.164Z,99.90
2019-03-25T08:34:15.647Z,99.90
2019-03-25T08:36:43.486Z,99.90
2019-03-25T08:39:11.325Z,99.90
2019-03-25T08:41:39.386Z,99.90
2019-03-25T08:44:07.356Z,99.90
2019-03-25T08:46:35.348Z,99.90
2019-03-25T08:49:03.326Z,99.90
2019-03-25T08:51:31.319Z,99.90
2019-03-25T08:53:59.251Z,99.90
2019-03-25T08:56:27.099Z,99.90
2019-03-25T08:58:54.943Z,99.90
2019-03-25T09:01:22.807Z,99.90
2019-03-25T09:03:50.626Z,99.90
2019-03-25T09:06:18.458Z,99.90
2019-03-25T09:08:46.388Z,99.90
2019-03-25T09:11:14.353Z,99.90
2019-03-25T09:13:44.112Z,99.90
2019-03-25T09:16:12.083Z,99.90
2019-03-25T09:18:39.921Z,99.90
2019-03-25T09:21:07.871Z,99.90
2019-03-25T09:23:35.745Z,99.90
2019-03-25T09:26:04.040Z,99.90
2019-03-25T09:28:31.911Z,99.90
2019-03-25T09:31:09.551Z,99.90
2019-03-25T09:33:37.607Z,99.90
2019-03-25T09:36:05.527Z,99.90
2019-03-25T09:38:33.581Z,99.90
2019-03-25T09:41:01.420Z,99.90
2019-03-25T09:43:29.220Z,99.90
2019-03-25T09:45:57.120Z,99.90
2019-03-25T09:48:24.951Z,99.90
2019-03-25T09:50:52.761Z,99.90
2019-03-25T09:53:20.583Z,99.90
2019-03-25T09:55:48.447Z,99.90
2019-03-25T09:58:16.350Z,99.90
2019-03-25T10:00:44.157Z,99.90
2019-03-25T10:03:11.955Z,99.90
2019-03-25T10:05:39.772Z,99.90
2019-03-25T10:08:07.571Z,99.90
2019-03-25T10:10:35.379Z,99.90
2019-03-25T10:13:03.213Z,99.90
2019-03-25T10:15:30.995Z,99.90
2019-03-25T10:17:58.843Z,99.90
2019-03-25T10:20:26.632Z,99.90
2019-03-25T10:22:54.454Z,99.90
2019-03-25T10:25:22.266Z,99.90
2019-03-25T10:27:50.065Z,99.90
2019-03-25T10:30:18.286Z,99.90
2019-03-25T10:32:46.139Z,99.90
2019-03-25T10:35:14.069Z,99.90
2019-03-25T10:37:41.894Z,99.90
2019-03-25T10:40:10.590Z,99.90
2019-03-25T10:42:38.375Z,99.90
2019-03-25T10:45:07.549Z,99.90
2019-03-25T10:47:35.439Z,99.90
2019-03-25T10:50:03.792Z,99.90
2019-03-25T10:52:31.672Z,99.90
2019-03-25T10:54:59.683Z,99.90
2019-03-25T10:57:27.663Z,99.90
2019-03-25T10:59:55.493Z,99.90
2019-03-25T11:02:23.869Z,99.90
2019-03-25T11:04:51.811Z,99.90
2019-03-25T11:07:19.715Z,99.90
2019-03-25T11:09:47.772Z,99.90
2019-03-25T11:12:15.793Z,98.30
2019-03-25T11:14:44.088Z,98.60
2019-03-25T11:17:12.310Z,98.50
2019-03-25T11:19:40.579Z,97.10
2019-03-25T11:22:08.854Z,95.80
2019-03-25T11:24:36.864Z,94.60
2019-03-25T11:27:05.404Z,92.80
2019-03-25T11:29:33.319Z,92.50
2019-03-25T11:32:01.207Z,92.60
2019-03-25T11:34:29.068Z,94.00
2019-03-25T11:36:56.886Z,95.20
2019-03-25T11:39:24.754Z,96.20
2019-03-25T11:41:52.592Z,96.90
2019-03-25T11:44:20.445Z,97.70
2019-03-25T11:46:48.385Z,98.50
2019-03-25T11:49:16.325Z,98.80
2019-03-25T11:51:44.127Z,99.50
2019-03-25T11:54:12.028Z,99.30
2019-03-25T11:56:39.877Z,99.10
2019-03-25T11:59:07.771Z,99.80
2019-03-25T12:01:35.591Z,99.40
2019-03-25T12:04:03.409Z,99.90
2019-03-25T12:06:31.314Z,99.90
2019-03-25T12:08:59.255Z,99.90
2019-03-25T12:11:28.624Z,99.90
2019-03-25T12:13:56.436Z,99.90
2019-03-25T12:16:27.359Z,99.90
2019-03-25T12:18:55.446Z,99.90
2019-03-25T12:21:23.228Z,99.90
2019-03-25T12:24:04.468Z,99.90
2019-03-25T12:26:32.264Z,99.60
2019-03-25T12:29:00.060Z,95.40
2019-03-25T12:31:28.044Z,95.60
2019-03-25T12:33:55.843Z,97.90
2019-03-25T12:36:23.643Z,98.40
2019-03-25T12:38:51.438Z,99.90
2019-03-25T12:41:19.224Z,99.90
2019-03-25T12:43:47.023Z,99.90
2019-03-25T12:46:14.833Z,99.90
2019-03-25T12:48:42.609Z,99.90
2019-03-25T12:51:10.394Z,99.90
2019-03-25T12:53:38.176Z,99.90
2019-03-25T12:56:06.014Z,99.90
2019-03-25T12:58:33.810Z,99.90
2019-03-25T13:01:01.695Z,99.40
2019-03-25T13:03:29.472Z,95.10
2019-03-25T13:05:57.296Z,95.30
2019-03-25T13:08:33.023Z,95.50
2019-03-25T13:10:54.910Z,95.70
2019-03-25T13:13:22.791Z,94.40
2019-03-25T13:15:50.583Z,93.80
2019-03-25T13:18:18.408Z,89.60
2019-03-25T13:21:05.476Z,88.10
2019-03-25T13:23:33.512Z,81.90
2019-03-25T13:26:01.507Z,83.80
2019-03-25T13:28:29.343Z,90.00
2019-03-25T13:30:57.390Z,92.80
2019-03-25T13:33:25.376Z,96.00
2019-03-25T13:35:53.436Z,97.00
2019-03-25T13:38:22.377Z,98.40
2019-03-25T13:40:50.579Z,99.50
2019-03-25T13:43:18.777Z,99.90
2019-03-25T13:45:46.817Z,99.90
2019-03-25T13:48:14.958Z,99.90
2019-03-25T13:50:42.861Z,99.90
2019-03-25T13:53:10.642Z,99.70
2019-03-25T13:55:38.423Z,94.80
2019-03-25T13:58:06.222Z,92.60
2019-03-25T14:00:35.774Z,93.80
2019-03-25T14:03:03.621Z,95.80
2019-03-25T14:05:31.417Z,99.00
2019-03-25T14:07:59.269Z,99.90
2019-03-25T14:10:27.054Z,99.90
2019-03-25T14:12:54.890Z,99.90
2019-03-25T14:15:22.691Z,99.90
2019-03-25T14:17:50.542Z,99.90
2019-03-25T14:20:18.351Z,99.90
2019-03-25T14:22:46.127Z,99.90
2019-03-25T14:25:13.943Z,99.90
2019-03-25T14:27:41.786Z,99.90
2019-03-25T14:30:14.593Z,99.90
2019-03-25T14:32:39.592Z,99.90
2019-03-25T14:35:07.519Z,99.90
2019-03-25T14:37:35.330Z,99.90
2019-03-25T14:40:03.634Z,99.90
2019-03-25T14:42:31.501Z,99.90
2019-03-25T14:44:59.302Z,99.90
2019-03-25T14:47:27.818Z,99.90
2019-03-25T14:49:55.665Z,99.90
2019-03-25T14:52:23.678Z,99.90
2019-03-25T14:54:51.619Z,99.90
2019-03-25T14:57:19.434Z,99.90
2019-03-25T14:59:47.303Z,99.90
2019-03-25T15:02:15.118Z,99.90
2019-03-25T15:04:42.931Z,99.90
2019-03-25T15:07:10.776Z,99.90
2019-03-25T15:09:38.662Z,99.90
2019-03-25T15:12:06.488Z,99.90
2019-03-25T15:14:34.313Z,99.90
2019-03-25T15:17:02.143Z,99.90
2019-03-25T15:19:30.059Z,99.90
2019-03-25T15:21:58.646Z,99.90
2019-03-25T15:24:26.537Z,99.90
2019-03-25T15:26:54.396Z,99.90
2019-03-25T15:29:22.231Z,99.90
2019-03-25T15:31:50.518Z,99.90
2019-03-25T15:34:18.318Z,99.90
2019-03-25T15:36:46.225Z,99.90
2019-03-25T15:39:14.050Z,99.90
2019-03-25T15:41:41.892Z,99.90
2019-03-25T15:44:09.672Z,99.90
2019-03-25T15:46:37.498Z,99.90
2019-03-25T15:49:07.627Z,99.90
2019-03-25T15:51:35.427Z,99.90
2019-03-25T15:54:03.227Z,99.90
2019-03-25T15:56:31.127Z,99.90
2019-03-25T15:58:58.926Z,99.90
2019-03-25T16:01:26.833Z,99.90
2019-03-25T16:03:54.691Z,99.90
2019-03-25T16:06:22.549Z,99.90
2019-03-25T16:08:50.568Z,99.90
2019-03-25T16:11:18.396Z,99.90
2019-03-25T16:13:46.200Z,99.90
2019-03-25T16:16:14.046Z,99.90
2019-03-25T16:18:41.854Z,99.90
2019-03-25T16:21:10.394Z,99.90
2019-03-25T16:23:38.647Z,99.90
2019-03-25T16:26:06.484Z,99.90
2019-03-25T16:28:34.310Z,99.90
2019-03-25T16:31:02.114Z,99.90
2019-03-25T16:33:29.933Z,99.90
2019-03-25T16:35:57.906Z,99.90
2019-03-25T16:38:25.793Z,99.90
2019-03-25T16:40:53.659Z,99.90
2019-03-25T16:43:21.472Z,99.90
2019-03-25T16:45:49.320Z,99.90
2019-03-25T16:48:17.146Z,99.90
2019-03-25T16:50:44.961Z,99.90
2019-03-25T16:53:12.787Z,99.90
2019-03-25T16:55:40.620Z,99.90
2019-03-25T16:58:08.427Z,99.90
2019-03-25T17:00:36.216Z,99.90
2019-03-25T17:03:04.005Z,99.90
2019-03-25T17:05:31.826Z,99.90
2019-03-25T17:07:59.708Z,99.90
2019-03-25T17:10:27.520Z,99.90
2019-03-25T17:12:55.461Z,99.90
2019-03-25T17:15:23.255Z,99.90
2019-03-25T17:17:51.159Z,99.90
2019-03-25T17:20:19.040Z,99.90
2019-03-25T17:22:46.948Z,99.90
2019-03-25T17:25:14.769Z,99.90
2019-03-25T17:27:42.580Z,99.90
2019-03-25T17:30:12.095Z,99.90
2019-03-25T17:32:39.917Z,99.90
2019-03-25T17:35:07.779Z,99.90
2019-03-25T17:37:35.680Z,99.90
2019-03-25T17:40:04.795Z,99.90
2019-03-25T17:42:32.600Z,99.90
2019-03-25T17:45:00.416Z,99.90
2019-03-25T17:47:28.722Z,99.90
2019-03-25T17:49:57.975Z,99.90
2019-03-25T17:52:27.929Z,99.90
2019-03-25T17:54:55.813Z,99.90
2019-03-25T17:57:23.703Z,99.90
2019-03-25T17:59:51.531Z,99.90
2019-03-25T18:02:19.675Z,99.90
2019-03-25T18:04:47.490Z,99.90
2019-03-25T18:07:15.307Z,99.90
2019-03-25T18:09:43.108Z,99.90
2019-03-25T18:12:11.012Z,99.90
2019-03-25T18:14:38.867Z,99.90
2019-03-25T18:17:06.760Z,99.90
2019-03-25T18:19:34.558Z,99.90
2019-03-25T18:22:02.365Z,99.90
2019-03-25T18:24:30.157Z,99.90
2019-03-25T18:26:57.997Z,99.90
2019-03-25T18:29:25.855Z,99.90
2019-03-25T18:31:53.648Z,99.90
2019-03-25T18:34:21.454Z,99.90
2019-03-25T18:36:49.266Z,99.90
2019-03-25T18:39:17.081Z,99.90
2019-03-25T18:41:44.934Z,99.90
2019-03-25T18:44:12.748Z,99.90
2019-03-25T18:46:40.679Z,99.90
2019-03-25T18:49:09.503Z,99.90
2019-03-25T18:51:37.331Z,99.90
2019-03-25T18:54:05.215Z,99.90
2019-03-25T18:56:33.011Z,99.90
2019-03-25T18:59:00.816Z,99.90
2019-03-25T19:01:28.647Z,99.90
2019-03-25T19:03:56.596Z,99.90
2019-03-25T19:06:24.636Z,99.90
2019-03-25T19:08:52.424Z,99.90
2019-03-25T19:11:30.556Z,99.90
2019-03-25T19:13:50.196Z,99.90
2019-03-25T19:16:18.135Z,99.90
2019-03-25T19:18:45.958Z,99.90
2019-03-25T19:21:13.902Z,99.90
2019-03-25T19:23:41.733Z,99.90
2019-03-25T19:26:09.652Z,99.90
2019-03-25T19:28:38.566Z,99.90
2019-03-25T19:31:06.500Z,99.90
2019-03-25T19:33:34.437Z,99.90
2019-03-25T19:36:02.335Z,99.90
2019-03-25T19:38:30.781Z,99.90
2019-03-25T19:40:58.738Z,99.90
2019-03-25T19:43:26.696Z,99.90
2019-03-25T19:45:54.667Z,99.90
2019-03-25T19:48:22.603Z,99.90
2019-03-25T19:50:50.564Z,99.90
2019-03-25T19:53:19.591Z,99.90
2019-03-25T19:55:47.627Z,99.90
2019-03-25T19:58:15.507Z,99.90
2019-03-25T20:00:43.400Z,99.90
2019-03-25T20:03:11.334Z,99.90
2019-03-25T20:05:39.228Z,99.90
2019-03-25T20:08:07.196Z,99.90
2019-03-25T20:10:35.795Z,99.90
2019-03-25T20:13:04.295Z,99.90
2019-03-25T20:15:45.004Z,99.90
2019-03-25T20:18:01.993Z,99.90
2019-03-25T20:20:29.968Z,99.90
2019-03-25T20:22:57.939Z,99.90
2019-03-25T20:25:26.089Z,99.90
2019-03-25T20:27:54.051Z,99.90
2019-03-25T20:30:22.263Z,99.90
2019-03-25T20:32:50.268Z,99.90
2019-03-25T20:35:18.151Z,99.90
2019-03-25T20:37:46.136Z,99.90
2019-03-25T20:40:14.315Z,99.90
2019-03-25T20:42:42.361Z,99.90
2019-03-25T20:45:11.493Z,99.90
2019-03-25T20:47:39.645Z,99.90
2019-03-25T20:50:08.298Z,99.90
2019-03-25T20:52:36.304Z,99.90
2019-03-25T20:55:04.727Z,99.90
2019-03-25T20:57:34.261Z,99.90
2019-03-25T21:00:02.458Z,99.90
2019-03-25T21:02:44.429Z,99.90
2019-03-25T21:05:02.532Z,99.90
2019-03-25T21:07:30.870Z,99.90
2019-03-25T21:09:59.469Z,99.90
2019-03-25T21:12:27.567Z,99.90
2019-03-25T21:14:55.705Z,99.90
2019-03-25T21:17:23.836Z,99.90
2019-03-25T21:19:54.520Z,99.90
2019-03-25T21:22:24.020Z,99.90
2019-03-25T21:24:52.113Z,99.90
2019-03-25T21:27:20.217Z,99.90
2019-03-25T21:29:48.273Z,99.90
2019-03-25T21:32:17.437Z,99.90
2019-03-25T21:34:45.756Z,99.90
2019-03-25T21:37:13.808Z,99.90
2019-03-25T21:39:41.763Z,99.90
2019-03-25T21:42:09.679Z,99.90
2019-03-25T21:44:37.619Z,99.90
2019-03-25T21:47:05.427Z,99.90
2019-03-25T21:49:33.279Z,99.90
2019-03-25T21:52:01.228Z,99.90
2019-03-25T21:54:29.112Z,99.90
2019-03-25T21:56:57.066Z,99.90
2019-03-25T21:59:25.024Z,99.90
2019-03-25T22:01:52.942Z,99.90
2019-03-25T22:04:20.860Z,99.90
2019-03-25T22:06:48.659Z,99.90
2019-03-25T22:09:19.526Z,99.90
2019-03-25T22:11:47.336Z,99.90
2019-03-25T22:14:15.244Z,99.90
2019-03-25T22:16:43.167Z,99.90
2019-03-25T22:19:11.014Z,99.90
2019-03-25T22:21:39.219Z,99.90
2019-03-25T22:24:07.195Z,99.90
2019-03-25T22:26:35.102Z,99.90
2019-03-25T22:29:03.027Z,99.90
2019-03-25T22:31:30.811Z,99.90
2019-03-25T22:33:58.641Z,99.90
2019-03-25T22:36:26.460Z,99.90
2019-03-25T22:38:54.254Z,99.90
2019-03-25T22:41:22.208Z,99.90
2019-03-25T22:43:50.020Z,99.90
2019-03-25T22:46:17.839Z,99.90
2019-03-25T22:48:45.742Z,99.90
2019-03-25T22:51:32.886Z,99.90
2019-03-25T22:54:00.778Z,99.90
2019-03-25T22:56:29.008Z,99.90
2019-03-25T22:58:56.811Z,99.90
2019-03-25T23:01:24.924Z,99.90
2019-03-25T23:03:52.720Z,99.90
2019-03-25T23:06:22.216Z,99.90
2019-03-25T23:08:50.125Z,99.90
2019-03-25T23:11:17.952Z,99.90
2019-03-25T23:13:45.761Z,99.90
2019-03-25T23:16:13.609Z,99.90
2019-03-25T23:18:41.407Z,99.90
2019-03-25T23:21:09.255Z,99.90
2019-03-25T23:23:37.075Z,99.90
2019-03-25T23:26:04.916Z,99.90
2019-03-25T23:28:32.729Z,99.90
